Time;durP1;ratioP1;P1;durP2;ratioP2;P2;SDS_P1;SDS_P2;PMS_P1;PMS_P2;Temp;Humidity;BMP_temperature;BMP_pressure;BME280_temperature;BME280_humidity;BME280_pressure;Samples;Min_cycle;Max_cycle;Signal;HPM_P1;HPM_P2
2023/07/23 00:01:29;;;;;;;66.53;6.57;;;;;;;;;;5002817;28;20284;-56
2023/07/23 00:03:54;;;;;;;66.85;6.78;;;;;;;;;;5004289;28;20264;-57
2023/07/23 00:06:19;;;;;;;60.57;6.83;;;;;;;;;;5002798;28;20045;-56
2023/07/23 00:08:45;;;;;;;60.77;6.23;;;;;;;;;;5005921;28;20257;-56
2023/07/23 00:11:10;;;;;;;130.17;10.80;;;;;;;;;;5005415;28;20285;-56
2023/07/23 00:13:35;;;;;;;69.35;7.07;;;;;;;;;;5007546;28;20139;-56
2023/07/23 00:16:00;;;;;;;72.80;7.63;;;;;;;;;;5002631;28;20060;-56
2023/07/23 00:18:26;;;;;;;54.40;6.30;;;;;;;;;;5005560;28;20483;-55
2023/07/23 00:20:51;;;;;;;71.70;7.40;;;;;;;;;;5004049;28;20325;-55
2023/07/23 00:23:16;;;;;;;97.45;8.75;;;;;;;;;;5003838;28;20260;-54
2023/07/23 00:25:42;;;;;;;55.72;6.30;;;;;;;;;;5003039;28;20427;-56
2023/07/23 00:28:07;;;;;;;125.72;10.65;;;;;;;;;;5004027;28;20018;-58
2023/07/23 00:30:32;;;;;;;66.40;6.60;;;;;;;;;;5003268;28;20061;-57
2023/07/23 00:32:57;;;;;;;57.13;6.60;;;;;;;;;;5004363;28;20260;-57
2023/07/23 00:35:23;;;;;;;59.87;6.70;;;;;;;;;;5003985;28;20636;-56
2023/07/23 00:37:48;;;;;;;52.25;6.03;;;;;;;;;;5008912;28;20614;-56
2023/07/23 00:40:13;;;;;;;95.00;9.20;;;;;;;;;;5006612;28;20356;-56
2023/07/23 00:42:39;;;;;;;67.10;6.97;;;;;;;;;;5007800;28;20269;-58
2023/07/23 00:45:04;;;;;;;93.87;8.27;;;;;;;;;;5006863;28;20029;-57
2023/07/23 00:47:29;;;;;;;53.13;6.13;;;;;;;;;;5008027;28;20423;-56
2023/07/23 00:49:55;;;;;;;68.90;7.03;;;;;;;;;;5009842;28;20018;-54
2023/07/23 00:52:20;;;;;;;115.47;10.18;;;;;;;;;;5007169;28;20292;-54
2023/07/23 00:54:45;;;;;;;54.42;6.13;;;;;;;;;;5009798;28;20502;-54
2023/07/23 00:57:11;;;;;;;108.20;10.00;;;;;;;;;;5008521;28;20115;-54
2023/07/23 00:59:40;;;;;;;54.08;6.20;;;;;;;;;;5009976;28;20403;-54
2023/07/23 01:02:05;;;;;;;71.72;7.20;;;;;;;;;;5007882;28;20038;-54
2023/07/23 01:04:31;;;;;;;75.03;7.07;;;;;;;;;;5010380;28;20445;-54
2023/07/23 01:06:57;;;;;;;60.85;6.30;;;;;;;;;;5009302;28;20040;-54
2023/07/23 01:09:23;;;;;;;61.22;6.63;;;;;;;;;;5007428;28;20021;-54
2023/07/23 01:11:49;;;;;;;67.45;6.68;;;;;;;;;;5009002;28;20430;-54
2023/07/23 01:14:14;;;;;;;102.50;10.05;;;;;;;;;;5010434;28;20470;-53
2023/07/23 01:16:39;;;;;;;53.10;6.23;;;;;;;;;;5007571;28;20045;-54
2023/07/23 01:19:07;;;;;;;75.13;7.80;;;;;;;;;;5007873;28;20284;-53
2023/07/23 01:21:32;;;;;;;54.42;6.25;;;;;;;;;;5009404;28;20380;-54
2023/07/23 01:23:57;;;;;;;53.35;6.40;;;;;;;;;;5010122;28;20530;-54
2023/07/23 01:26:22;;;;;;;111.00;9.80;;;;;;;;;;5010129;28;20033;-54
2023/07/23 01:28:47;;;;;;;54.50;6.27;;;;;;;;;;5010245;28;20279;-54
2023/07/23 01:31:13;;;;;;;127.27;10.47;;;;;;;;;;5007486;28;20281;-54
2023/07/23 01:33:39;;;;;;;63.00;6.50;;;;;;;;;;5008925;28;20960;-54
2023/07/23 01:36:05;;;;;;;56.45;6.45;;;;;;;;;;5009907;28;20038;-54
2023/07/23 01:38:31;;;;;;;63.40;6.72;;;;;;;;;;5009789;28;20033;-54
2023/07/23 01:40:57;;;;;;;59.38;6.63;;;;;;;;;;5008642;28;20506;-54
2023/07/23 01:43:23;;;;;;;122.57;11.50;;;;;;;;;;5008405;28;20112;-54
2023/07/23 01:45:48;;;;;;;68.60;7.68;;;;;;;;;;5008375;28;20034;-54
2023/07/23 01:48:13;;;;;;;97.78;9.45;;;;;;;;;;5010664;28;20059;-54
2023/07/23 01:50:39;;;;;;;47.53;6.05;;;;;;;;;;5010008;28;20616;-54
2023/07/23 01:53:04;;;;;;;71.93;7.60;;;;;;;;;;5009383;28;20037;-54
2023/07/23 01:55:30;;;;;;;56.20;6.78;;;;;;;;;;5008954;28;20172;-54
2023/07/23 01:57:55;;;;;;;53.85;6.53;;;;;;;;;;5010626;28;20468;-55
2023/07/23 02:00:20;;;;;;;103.65;9.90;;;;;;;;;;5007454;28;20075;-54
2023/07/23 02:02:45;;;;;;;51.17;7.07;;;;;;;;;;5007205;28;20029;-54
2023/07/23 02:05:11;;;;;;;106.30;10.07;;;;;;;;;;5006386;28;20017;-54
2023/07/23 02:07:36;;;;;;;66.10;7.20;;;;;;;;;;5010097;28;20284;-54
2023/07/23 02:10:01;;;;;;;64.35;7.05;;;;;;;;;;5009897;28;20260;-54
2023/07/23 02:12:27;;;;;;;60.45;6.22;;;;;;;;;;5006709;28;20037;-54
2023/07/23 02:14:52;;;;;;;73.43;7.17;;;;;;;;;;5009747;28;20048;-54
2023/07/23 02:17:18;;;;;;;87.82;8.73;;;;;;;;;;5006603;28;20277;-51
2023/07/23 02:19:43;;;;;;;55.53;6.10;;;;;;;;;;5008167;28;20460;-51
2023/07/23 02:22:08;;;;;;;59.30;6.80;;;;;;;;;;5007666;28;20352;-51
2023/07/23 02:24:34;;;;;;;57.50;6.63;;;;;;;;;;5008766;28;20264;-51
2023/07/23 02:26:59;;;;;;;57.78;6.30;;;;;;;;;;5008713;28;20381;-54
2023/07/23 02:29:24;;;;;;;129.38;10.90;;;;;;;;;;5005738;28;20025;-54
2023/07/23 02:31:49;;;;;;;48.57;5.37;;;;;;;;;;5009740;28;20033;-54
2023/07/23 02:34:15;;;;;;;102.73;9.37;;;;;;;;;;5009065;28;20260;-53
2023/07/23 02:36:40;;;;;;;69.10;6.50;;;;;;;;;;5007959;28;20351;-54
2023/07/23 02:39:05;;;;;;;60.55;6.70;;;;;;;;;;5010331;28;20753;-54
2023/07/23 02:41:30;;;;;;;58.10;6.30;;;;;;;;;;5007796;28;20065;-54
2023/07/23 02:43:56;;;;;;;58.37;6.50;;;;;;;;;;5007284;28;20480;-54
2023/07/23 02:46:21;;;;;;;81.77;7.60;;;;;;;;;;5007238;28;20689;-53
2023/07/23 02:48:46;;;;;;;49.95;5.85;;;;;;;;;;5006775;28;20267;-54
2023/07/23 02:51:11;;;;;;;97.60;8.50;;;;;;;;;;5007135;28;20033;-54
2023/07/23 02:53:36;;;;;;;69.80;7.03;;;;;;;;;;5007798;28;20284;-54
2023/07/23 02:56:02;;;;;;;51.63;6.10;;;;;;;;;;5007464;28;20053;-54
2023/07/23 02:58:27;;;;;;;118.93;9.93;;;;;;;;;;5005534;28;20334;-54
2023/07/23 03:00:55;;;;;;;60.13;6.78;;;;;;;;;;5007702;28;20037;-54
2023/07/23 03:03:20;;;;;;;118.97;10.15;;;;;;;;;;5004246;28;20021;-53
2023/07/23 03:05:45;;;;;;;66.50;6.77;;;;;;;;;;5006942;28;20045;-53
2023/07/23 03:08:10;;;;;;;44.13;6.00;;;;;;;;;;5008693;28;20265;-53
2023/07/23 03:10:36;;;;;;;48.72;5.72;;;;;;;;;;5008129;28;20281;-54
2023/07/23 03:13:01;;;;;;;78.75;7.57;;;;;;;;;;5007212;28;20045;-54
2023/07/23 03:15:26;;;;;;;107.20;9.90;;;;;;;;;;5004565;28;20364;-54
2023/07/23 03:17:51;;;;;;;55.83;6.33;;;;;;;;;;5007571;28;20653;-54
2023/07/23 03:20:17;;;;;;;114.50;10.37;;;;;;;;;;5006629;28;20332;-53
2023/07/23 03:22:43;;;;;;;57.60;6.22;;;;;;;;;;5008342;28;20131;-55
2023/07/23 03:25:08;;;;;;;54.45;6.25;;;;;;;;;;5014333;28;20047;-52
2023/07/23 03:27:33;;;;;;;60.03;6.53;;;;;;;;;;5007838;28;20351;-54
2023/07/23 03:29:59;;;;;;;55.47;5.75;;;;;;;;;;5008830;28;20056;-54
2023/07/23 03:32:24;;;;;;;87.80;8.03;;;;;;;;;;5006876;28;20321;-54
2023/07/23 03:34:49;;;;;;;64.25;6.53;;;;;;;;;;5011359;28;20382;-55
2023/07/23 03:37:14;;;;;;;66.80;6.93;;;;;;;;;;5006571;28;20506;-54
2023/07/23 03:39:40;;;;;;;44.55;5.45;;;;;;;;;;5008406;28;20267;-53
2023/07/23 03:42:06;;;;;;;87.17;7.93;;;;;;;;;;5009402;28;20038;-54
2023/07/23 03:44:32;;;;;;;121.28;10.20;;;;;;;;;;5005790;28;20309;-54
2023/07/23 03:47:01;;;;;;;63.72;6.50;;;;;;;;;;5006632;28;20119;-54
2023/07/23 03:49:26;;;;;;;118.25;9.98;;;;;;;;;;5006306;28;20021;-54
2023/07/23 03:51:51;;;;;;;69.23;6.37;;;;;;;;;;5007403;28;20036;-54
2023/07/23 03:54:16;;;;;;;83.57;8.20;;;;;;;;;;5005286;28;20630;-54
2023/07/23 03:56:42;;;;;;;66.40;6.93;;;;;;;;;;5006664;28;20037;-54
2023/07/23 03:59:07;;;;;;;53.93;5.97;;;;;;;;;;5008090;28;20030;-54
2023/07/23 04:01:32;;;;;;;239.07;16.43;;;;;;;;;;5004817;28;20279;-54
2023/07/23 04:03:57;;;;;;;73.20;7.23;;;;;;;;;;5005732;28;20295;-54
2023/07/23 04:06:23;;;;;;;110.85;9.82;;;;;;;;;;5005360;28;20730;-54
2023/07/23 04:08:48;;;;;;;60.30;6.37;;;;;;;;;;5007405;28;20081;-54
2023/07/23 04:11:13;;;;;;;82.23;7.70;;;;;;;;;;5006132;28;20747;-54
2023/07/23 04:13:38;;;;;;;56.50;6.32;;;;;;;;;;5004413;28;20264;-53
2023/07/23 04:16:10;;;;;;;60.23;6.63;;;;;;;;;;5004822;28;20116;-53
2023/07/23 04:18:49;;;;;;;72.93;7.10;;;;;;;;;;5003954;28;20308;-54
2023/07/23 04:21:16;;;;;;;59.75;6.65;;;;;;;;;;5004803;28;20490;-54
2023/07/23 04:23:44;;;;;;;86.82;7.75;;;;;;;;;;5006387;28;20038;-54
2023/07/23 04:26:09;;;;;;;76.05;7.30;;;;;;;;;;5004512;28;20562;-54
2023/07/23 04:28:35;;;;;;;59.57;6.33;;;;;;;;;;5005118;28;20034;-54
2023/07/23 04:31:00;;;;;;;75.67;7.53;;;;;;;;;;5006368;28;20654;-54
2023/07/23 04:33:25;;;;;;;125.17;10.83;;;;;;;;;;5004564;28;20351;-54
2023/07/23 04:35:50;;;;;;;62.67;6.63;;;;;;;;;;5006367;28;20372;-54
2023/07/23 04:38:16;;;;;;;59.20;6.63;;;;;;;;;;5006989;28;20306;-54
2023/07/23 04:40:41;;;;;;;54.80;6.00;;;;;;;;;;5006572;28;20396;-56
2023/07/23 04:43:06;;;;;;;59.17;6.27;;;;;;;;;;5005701;28;20368;-54
2023/07/23 04:45:31;;;;;;;137.13;11.50;;;;;;;;;;5003626;28;20333;-52
2023/07/23 04:47:56;;;;;;;58.47;6.53;;;;;;;;;;5008598;28;20276;-51
2023/07/23 04:50:22;;;;;;;88.10;7.90;;;;;;;;;;5005194;28;20275;-51
2023/07/23 04:52:47;;;;;;;69.77;7.03;;;;;;;;;;5006094;28;20277;-51
2023/07/23 04:55:12;;;;;;;53.73;6.17;;;;;;;;;;5006045;28;20264;-51
2023/07/23 04:57:38;;;;;;;62.63;6.28;;;;;;;;;;5005328;28;20283;-51
2023/07/23 05:00:06;;;;;;;65.72;6.68;;;;;;;;;;5006706;28;20016;-51
2023/07/23 05:02:31;;;;;;;113.57;10.32;;;;;;;;;;5003928;28;20042;-51
2023/07/23 05:04:56;;;;;;;62.17;6.33;;;;;;;;;;5006473;28;20075;-52
2023/07/23 05:07:21;;;;;;;103.07;8.83;;;;;;;;;;5004253;28;20268;-52
2023/07/23 05:09:47;;;;;;;55.03;6.27;;;;;;;;;;5005472;28;20315;-52
2023/07/23 05:12:12;;;;;;;53.73;5.90;;;;;;;;;;5005360;28;20198;-52
2023/07/23 05:14:37;;;;;;;102.63;52.77;;;;;;;;;;5006329;28;20018;-53
2023/07/23 05:17:02;;;;;;;52.70;6.18;;;;;;;;;;5006602;28;20280;-52
2023/07/23 05:19:28;;;;;;;125.75;69.45;;;;;;;;;;5005814;28;20249;-52
2023/07/23 05:21:54;;;;;;;90.60;32.70;;;;;;;;;;5008897;28;20482;-53
2023/07/23 05:24:20;;;;;;;160.35;140.80;;;;;;;;;;5009483;28;20045;-52
2023/07/23 05:26:45;;;;;;;60.60;20.10;;;;;;;;;;5011302;28;20076;-53
2023/07/23 05:29:10;;;;;;;349.43;315.33;;;;;;;;;;5009421;28;20415;-53
2023/07/23 05:31:35;;;;;;;119.72;39.42;;;;;;;;;;5009521;28;20324;-53
2023/07/23 05:34:01;;;;;;;97.40;45.17;;;;;;;;;;5009879;28;20404;-53
2023/07/23 05:36:26;;;;;;;289.43;233.37;;;;;;;;;;5007449;28;20317;-55
2023/07/23 05:38:51;;;;;;;377.00;340.83;;;;;;;;;;5017731;28;20280;-53
2023/07/23 05:41:16;;;;;;;177.13;124.30;;;;;;;;;;5009437;28;20731;-52
2023/07/23 05:43:42;;;;;;;76.88;16.67;;;;;;;;;;5008051;28;20116;-53
2023/07/23 05:46:08;;;;;;;143.65;78.85;;;;;;;;;;5008745;28;20041;-53
2023/07/23 05:48:33;;;;;;;264.55;234.27;;;;;;;;;;5007416;28;20187;-53
2023/07/23 05:50:58;;;;;;;152.53;114.30;;;;;;;;;;5008129;28;20340;-53
2023/07/23 05:53:23;;;;;;;380.05;332.80;;;;;;;;;;5008076;28;20030;-53
2023/07/23 05:55:49;;;;;;;364.63;326.43;;;;;;;;;;5007594;28;20044;-53
2023/07/23 05:58:14;;;;;;;318.70;285.63;;;;;;;;;;5009445;28;20028;-53
2023/07/23 06:00:39;;;;;;;343.73;304.80;;;;;;;;;;5008249;28;20802;-53
2023/07/23 06:03:05;;;;;;;432.30;381.53;;;;;;;;;;5007717;28;20615;-53
2023/07/23 06:05:30;;;;;;;347.45;306.95;;;;;;;;;;5008722;28;20042;-53
2023/07/23 06:07:55;;;;;;;464.30;417.67;;;;;;;;;;5009588;28;20022;-52
2023/07/23 06:10:20;;;;;;;472.45;425.35;;;;;;;;;;5009392;28;20017;-53
2023/07/23 06:12:46;;;;;;;404.63;362.40;;;;;;;;;;5006633;28;20365;-53
2023/07/23 06:15:11;;;;;;;394.37;355.90;;;;;;;;;;5006680;28;20268;-53
2023/07/23 06:17:36;;;;;;;462.15;387.60;;;;;;;;;;5006486;28;20049;-54
2023/07/23 06:20:02;;;;;;;358.63;322.20;;;;;;;;;;5008779;28;20014;-53
2023/07/23 06:22:27;;;;;;;460.33;413.67;;;;;;;;;;5007799;28;20134;-53
2023/07/23 06:24:52;;;;;;;397.10;355.83;;;;;;;;;;5008872;28;20045;-54
2023/07/23 06:27:17;;;;;;;585.60;525.73;;;;;;;;;;5008376;28;20129;-53
2023/07/23 06:29:42;;;;;;;458.57;375.93;;;;;;;;;;5007534;28;20029;-53
2023/07/23 06:32:09;;;;;;;481.17;437.83;;;;;;;;;;5006270;28;20252;-53
2023/07/23 06:34:34;;;;;;;457.10;378.27;;;;;;;;;;5006144;28;20271;-53
2023/07/23 06:36:59;;;;;;;402.67;359.80;;;;;;;;;;5008201;28;20037;-53
2023/07/23 06:39:25;;;;;;;478.08;432.38;;;;;;;;;;5007535;28;20021;-53
2023/07/23 06:41:50;;;;;;;455.87;285.80;;;;;;;;;;5008901;28;20447;-53
2023/07/23 06:44:15;;;;;;;459.90;422.00;;;;;;;;;;5007864;28;20277;-53
2023/07/23 06:46:40;;;;;;;507.63;458.30;;;;;;;;;;5007873;28;20853;-53
2023/07/23 06:49:06;;;;;;;472.20;431.50;;;;;;;;;;5009172;28;20574;-53
2023/07/23 06:51:31;;;;;;;394.50;352.60;;;;;;;;;;5006364;28;20662;-54
2023/07/23 06:53:56;;;;;;;361.13;327.43;;;;;;;;;;5007866;28;20030;-53
2023/07/23 06:56:21;;;;;;;421.40;385.60;;;;;;;;;;5008464;28;20496;-54
2023/07/23 06:58:47;;;;;;;448.70;408.30;;;;;;;;;;5009210;28;20343;-54
2023/07/23 07:01:12;;;;;;;364.52;315.05;;;;;;;;;;5009181;28;20272;-52
2023/07/23 07:03:38;;;;;;;475.97;429.30;;;;;;;;;;5006308;28;20503;-52
2023/07/23 07:06:04;;;;;;;376.17;338.07;;;;;;;;;;5008097;28;20397;-52
2023/07/23 07:08:29;;;;;;;396.85;352.40;;;;;;;;;;5006860;28;20276;-52
2023/07/23 07:10:58;;;;;;;494.20;366.52;;;;;;;;;;5009238;28;20045;-53
2023/07/23 07:13:23;;;;;;;486.10;420.55;;;;;;;;;;5005773;28;20017;-53
2023/07/23 07:15:49;;;;;;;363.75;312.77;;;;;;;;;;5006206;28;20030;-53
2023/07/23 07:18:14;;;;;;;209.93;61.53;;;;;;;;;;5007624;28;20037;-53
2023/07/23 07:20:39;;;;;;;361.83;320.90;;;;;;;;;;5007643;28;20789;-53
2023/07/23 07:23:04;;;;;;;411.40;307.03;;;;;;;;;;5008694;28;20097;-53
2023/07/23 07:25:30;;;;;;;336.40;254.57;;;;;;;;;;5007994;28;20061;-53
2023/07/23 07:27:55;;;;;;;400.67;362.50;;;;;;;;;;5008105;28;20313;-53
2023/07/23 07:30:20;;;;;;;543.73;398.57;;;;;;;;;;5005766;28;20256;-54
2023/07/23 07:32:45;;;;;;;490.80;442.60;;;;;;;;;;5007240;28;20518;-53
2023/07/23 07:35:11;;;;;;;427.73;377.07;;;;;;;;;;5006456;28;20427;-53
2023/07/23 07:37:36;;;;;;;542.97;486.13;;;;;;;;;;5004941;28;20053;-53
2023/07/23 07:40:01;;;;;;;487.80;357.70;;;;;;;;;;5008746;28;20060;-53
2023/07/23 07:42:26;;;;;;;415.50;376.47;;;;;;;;;;5006506;28;20045;-53
2023/07/23 07:44:52;;;;;;;516.33;360.37;;;;;;;;;;5006073;28;20491;-53
2023/07/23 07:47:17;;;;;;;588.22;533.88;;;;;;;;;;5006183;28;20033;-55
2023/07/23 07:49:42;;;;;;;524.80;278.33;;;;;;;;;;5004555;28;20017;-53
2023/07/23 07:52:07;;;;;;;1345.50;280.90;;;;;;;;;;5006922;28;20042;-54
2023/07/23 07:54:34;;;;;;;503.50;450.83;;;;;;;;;;5003925;28;20033;-53
2023/07/23 07:56:59;;;;;;;442.52;398.00;;;;;;;;;;5007364;28;20499;-53
2023/07/23 07:59:24;;;;;;;600.58;436.00;;;;;;;;;;5007304;28;20467;-53
2023/07/23 08:01:50;;;;;;;646.22;579.95;;;;;;;;;;5005910;28;20534;-53
2023/07/23 08:04:15;;;;;;;626.67;551.42;;;;;;;;;;5006764;28;20025;-53
2023/07/23 08:06:40;;;;;;;341.20;305.60;;;;;;;;;;5003663;28;20083;-57
2023/07/23 08:09:08;;;;;;;369.50;338.17;;;;;;;;;;5006484;28;20028;-53
2023/07/23 08:11:34;;;;;;;494.13;442.17;;;;;;;;;;5002963;28;20095;-54
2023/07/23 08:14:00;;;;;;;484.65;409.15;;;;;;;;;;5005035;28;20052;-54
2023/07/23 08:16:25;;;;;;;551.45;484.35;;;;;;;;;;5003321;28;20411;-54
2023/07/23 08:18:50;;;;;;;407.85;370.80;;;;;;;;;;5004556;28;20022;-53
2023/07/23 08:21:17;;;;;;;543.30;409.10;;;;;;;;;;5007319;28;20380;-54
2023/07/23 08:23:42;;;;;;;571.65;498.88;;;;;;;;;;5006505;28;20097;-53
2023/07/23 08:26:08;;;;;;;551.38;493.52;;;;;;;;;;5005489;28;20063;-54
2023/07/23 08:28:37;;;;;;;500.77;408.52;;;;;;;;;;5005209;28;20029;-54
2023/07/23 08:31:03;;;;;;;641.88;500.52;;;;;;;;;;5004783;28;20057;-52
2023/07/23 08:33:29;;;;;;;508.38;455.10;;;;;;;;;;5005433;28;20121;-53
2023/07/23 08:35:55;;;;;;;624.95;503.95;;;;;;;;;;5004645;28;20026;-56
2023/07/23 08:38:21;;;;;;;545.80;487.08;;;;;;;;;;5007425;28;20050;-54
2023/07/23 08:40:49;;;;;;;528.35;475.20;;;;;;;;;;5006321;28;20089;-55
2023/07/23 08:43:31;;;;;;;495.98;448.25;;;;;;;;;;5008701;28;20103;-53
2023/07/23 08:46:11;;;;;;;628.33;452.02;;;;;;;;;;5006827;28;20037;-54
2023/07/23 08:48:49;;;;;;;724.78;339.92;;;;;;;;;;5005550;28;20518;-54
2023/07/23 08:51:14;;;;;;;487.58;327.40;;;;;;;;;;5007816;28;20033;-54
2023/07/23 08:53:39;;;;;;;475.42;430.90;;;;;;;;;;5007532;28;20057;-54
2023/07/23 08:56:05;;;;;;;425.60;352.47;;;;;;;;;;5009105;28;20064;-53
2023/07/23 08:58:30;;;;;;;532.30;341.35;;;;;;;;;;5011026;28;20025;-57
2023/07/23 09:00:56;;;;;;;394.33;358.40;;;;;;;;;;5007844;28;20048;-55
2023/07/23 09:03:21;;;;;;;460.90;417.33;;;;;;;;;;5012323;28;20072;-55
2023/07/23 09:05:47;;;;;;;473.65;411.58;;;;;;;;;;5009004;28;20042;-53
2023/07/23 09:08:12;;;;;;;549.87;497.77;;;;;;;;;;5010607;28;20018;-54
2023/07/23 09:10:38;;;;;;;740.80;441.93;;;;;;;;;;5007835;28;20038;-55
2023/07/23 09:13:16;;;;;;;660.50;251.20;;;;;;;;;;5010008;28;20022;-55
2023/07/23 09:15:41;;;;;;;480.90;294.92;;;;;;;;;;5008954;28;20034;-54
2023/07/23 09:18:07;;;;;;;520.58;357.58;;;;;;;;;;5011891;28;20430;-54
2023/07/23 09:20:32;;;;;;;353.75;318.25;;;;;;;;;;5009142;28;20295;-53
2023/07/23 09:23:07;;;;;;;744.03;391.67;;;;;;;;;;5007346;28;20132;-54
2023/07/23 09:25:32;;;;;;;723.67;343.33;;;;;;;;;;5007806;28;20079;-53
2023/07/23 09:27:57;;;;;;;492.00;356.63;;;;;;;;;;5007374;28;20025;-53
2023/07/23 09:30:24;;;;;;;1107.53;481.53;;;;;;;;;;5009229;28;20022;-53
2023/07/23 09:32:56;;;;;;;571.70;415.27;;;;;;;;;;5007299;28;20038;-53
2023/07/23 09:35:23;;;;;;;744.35;281.65;;;;;;;;;;5008297;28;20041;-55
2023/07/23 09:37:56;;;;;;;463.80;331.25;;;;;;;;;;5010726;28;20490;-53
2023/07/23 09:40:21;;;;;;;931.40;329.80;;;;;;;;;;5008311;28;20060;-53
2023/07/23 09:42:46;;;;;;;666.83;406.80;;;;;;;;;;5007818;28;20014;-53
2023/07/23 09:45:12;;;;;;;905.15;481.58;;;;;;;;;;5008143;28;20021;-56
2023/07/23 09:47:38;;;;;;;310.42;274.23;;;;;;;;;;5007457;28;20064;-52
2023/07/23 09:50:03;;;;;;;1001.13;146.45;;;;;;;;;;5009599;28;20053;-53
2023/07/23 09:52:33;;;;;;;419.75;381.83;;;;;;;;;;5010622;28;20055;-53
2023/07/23 09:54:59;;;;;;;462.30;285.30;;;;;;;;;;5011318;28;20625;-52
2023/07/23 09:57:24;;;;;;;509.80;449.48;;;;;;;;;;5008995;28;20538;-53
2023/07/23 09:59:51;;;;;;;339.75;299.17;;;;;;;;;;5009136;28;20033;-52
2023/07/23 10:02:17;;;;;;;544.45;482.33;;;;;;;;;;5009702;28;20435;-53
2023/07/23 10:04:42;;;;;;;496.25;440.55;;;;;;;;;;5008119;28;20483;-53
2023/07/23 10:07:09;;;;;;;1376.18;394.00;;;;;;;;;;5009171;28;20074;-53
2023/07/23 10:09:35;;;;;;;493.20;446.17;;;;;;;;;;5008940;28;20176;-53
2023/07/23 10:12:00;;;;;;;502.13;455.52;;;;;;;;;;5007559;28;20034;-53
2023/07/23 10:14:26;;;;;;;395.57;360.30;;;;;;;;;;5010310;28;20480;-53
2023/07/23 10:16:52;;;;;;;621.40;556.40;;;;;;;;;;5006452;28;20430;-53
2023/07/23 10:19:19;;;;;;;480.35;315.60;;;;;;;;;;5008816;28;20292;-53
2023/07/23 10:21:47;;;;;;;442.30;370.67;;;;;;;;;;5006032;28;20034;-53
2023/07/23 10:24:12;;;;;;;469.33;393.23;;;;;;;;;;5007863;28;20036;-53
2023/07/23 10:26:41;;;;;;;498.93;420.27;;;;;;;;;;5007242;28;20038;-53
2023/07/23 10:29:06;;;;;;;456.20;395.80;;;;;;;;;;5009436;28;20029;-53
2023/07/23 10:31:32;;;;;;;514.30;408.93;;;;;;;;;;5008548;28;20038;-54
2023/07/23 10:33:57;;;;;;;459.53;281.37;;;;;;;;;;5015044;28;20107;-53
2023/07/23 10:36:23;;;;;;;945.73;265.47;;;;;;;;;;5008649;28;21198;-54
2023/07/23 10:39:05;;;;;;;495.48;396.73;;;;;;;;;;5008182;28;20482;-53
2023/07/23 10:41:51;;;;;;;440.30;399.27;;;;;;;;;;5009401;28;20037;-53
2023/07/23 10:44:22;;;;;;;583.22;445.17;;;;;;;;;;5008284;28;20026;-53
2023/07/23 10:46:47;;;;;;;473.90;423.48;;;;;;;;;;5006963;28;20408;-53
2023/07/23 10:49:18;;;;;;;886.63;561.30;;;;;;;;;;5008612;28;20563;-53
2023/07/23 10:51:43;;;;;;;538.87;464.63;;;;;;;;;;5006056;28;20125;-53
2023/07/23 10:54:09;;;;;;;595.53;502.23;;;;;;;;;;5009315;28;20156;-52
2023/07/23 10:56:36;;;;;;;421.63;287.15;;;;;;;;;;5008180;28;20298;-54
2023/07/23 10:59:05;;;;;;;535.80;481.75;;;;;;;;;;5009168;28;20032;-53
2023/07/23 11:01:33;;;;;;;431.92;379.83;;;;;;;;;;5007281;28;20060;-53
2023/07/23 11:03:59;;;;;;;521.30;426.55;;;;;;;;;;5007816;28;20026;-52
2023/07/23 11:06:25;;;;;;;547.08;493.30;;;;;;;;;;5007246;28;20488;-53
2023/07/23 11:08:51;;;;;;;548.17;465.27;;;;;;;;;;5007008;28;20022;-53
2023/07/23 11:11:16;;;;;;;750.38;283.98;;;;;;;;;;5008919;28;20340;-53
2023/07/23 11:13:41;;;;;;;572.13;396.23;;;;;;;;;;5007251;28;20041;-53
2023/07/23 11:16:06;;;;;;;611.03;495.35;;;;;;;;;;5007613;28;20698;-52
2023/07/23 11:18:32;;;;;;;628.63;452.63;;;;;;;;;;5007790;28;20534;-53
2023/07/23 11:21:02;;;;;;;974.13;251.30;;;;;;;;;;5005857;28;20404;-52
2023/07/23 11:23:28;;;;;;;880.45;318.42;;;;;;;;;;5006285;28;20045;-53
2023/07/23 11:25:53;;;;;;;998.23;437.00;;;;;;;;;;5005836;28;20121;-53
2023/07/23 11:28:19;;;;;;;480.07;431.93;;;;;;;;;;5005757;28;20518;-52
2023/07/23 11:30:44;;;;;;;512.95;457.75;;;;;;;;;;5004597;28;20473;-52
2023/07/23 11:33:11;;;;;;;380.95;292.27;;;;;;;;;;5008058;28;20514;-52
2023/07/23 11:35:37;;;;;;;1011.28;274.33;;;;;;;;;;5006837;28;20743;-53
2023/07/23 11:38:02;;;;;;;511.63;460.85;;;;;;;;;;5006078;28;20476;-53
2023/07/23 11:40:27;;;;;;;371.23;331.27;;;;;;;;;;5008619;28;20647;-52
2023/07/23 11:42:53;;;;;;;553.67;357.55;;;;;;;;;;5006272;28;20338;-52
2023/07/23 11:45:18;;;;;;;526.50;473.97;;;;;;;;;;5006663;28;20026;-54
2023/07/23 11:47:51;;;;;;;480.90;429.02;;;;;;;;;;5005851;28;20380;-53
2023/07/23 11:50:17;;;;;;;359.65;324.23;;;;;;;;;;5005667;28;20025;-53
2023/07/23 11:52:42;;;;;;;438.70;316.23;;;;;;;;;;5005274;28;20064;-53
2023/07/23 11:55:20;;;;;;;598.05;362.80;;;;;;;;;;5004808;28;20139;-52
2023/07/23 11:57:49;;;;;;;325.92;295.02;;;;;;;;;;5004224;28;20490;-53
2023/07/23 12:00:22;;;;;;;356.67;320.23;;;;;;;;;;5005654;28;20645;-53
2023/07/23 12:02:47;;;;;;;;;;;;;;;;;;5006390;28;20754;-52
2023/07/23 12:05:14;;;;;;;420.10;380.10;;;;;;;;;;5005371;28;19913;-52
2023/07/23 12:07:39;;;;;;;600.45;537.85;;;;;;;;;;5007883;28;20030;-53
2023/07/23 12:10:05;;;;;;;858.15;310.08;;;;;;;;;;5004735;28;20288;-52
2023/07/23 12:12:32;;;;;;;578.80;305.95;;;;;;;;;;5007062;28;20063;-53
2023/07/23 12:15:01;;;;;;;387.88;346.83;;;;;;;;;;5006663;28;20033;-53
2023/07/23 12:17:27;;;;;;;395.80;196.30;;;;;;;;;;5008799;28;20030;-53
2023/07/23 12:19:52;;;;;;;462.75;415.55;;;;;;;;;;5006113;28;20465;-53
2023/07/23 12:22:18;;;;;;;388.70;348.67;;;;;;;;;;5005693;28;20950;-53
2023/07/23 12:24:43;;;;;;;371.70;313.48;;;;;;;;;;5007860;28;20471;-54
2023/07/23 12:27:08;;;;;;;782.83;233.17;;;;;;;;;;5006477;28;20034;-54
2023/07/23 12:29:38;;;;;;;906.63;328.87;;;;;;;;;;5007077;28;20025;-55
2023/07/23 12:32:09;;;;;;;634.85;511.52;;;;;;;;;;5004309;28;20269;-54
2023/07/23 12:34:34;;;;;;;510.55;398.13;;;;;;;;;;5006811;28;20855;-53
2023/07/23 12:36:59;;;;;;;475.55;425.90;;;;;;;;;;5006599;28;20049;-54
2023/07/23 12:39:24;;;;;;;1155.30;218.23;;;;;;;;;;5010880;28;20064;-53
2023/07/23 12:41:50;;;;;;;702.30;359.40;;;;;;;;;;5004935;28;20095;-53
2023/07/23 12:44:15;;;;;;;453.47;408.10;;;;;;;;;;5008504;28;20013;-54
2023/07/23 12:46:40;;;;;;;214.47;191.93;;;;;;;;;;5006625;28;20033;-54
2023/07/23 12:49:05;;;;;;;524.45;456.75;;;;;;;;;;5003656;28;20109;-54
2023/07/23 12:51:31;;;;;;;476.57;377.30;;;;;;;;;;5005761;28;20034;-54
2023/07/23 12:53:56;;;;;;;482.10;296.88;;;;;;;;;;5004810;28;20511;-54
2023/07/23 12:56:21;;;;;;;575.97;260.50;;;;;;;;;;5006031;28;20025;-53
2023/07/23 12:58:47;;;;;;;447.00;406.77;;;;;;;;;;5005770;28;20376;-52
2023/07/23 13:01:12;;;;;;;422.93;343.27;;;;;;;;;;5006504;28;20052;-53
2023/07/23 13:03:37;;;;;;;449.95;405.63;;;;;;;;;;5006877;28;20492;-53
2023/07/23 13:06:03;;;;;;;469.05;252.60;;;;;;;;;;5008528;28;20442;-53
2023/07/23 13:08:28;;;;;;;838.85;492.30;;;;;;;;;;5006263;28;20519;-53
2023/07/23 13:10:53;;;;;;;457.43;322.40;;;;;;;;;;5003133;28;20038;-53
2023/07/23 13:13:19;;;;;;;496.77;452.00;;;;;;;;;;5007051;28;20682;-53
2023/07/23 13:15:44;;;;;;;415.83;377.77;;;;;;;;;;5005306;28;20264;-53
2023/07/23 13:18:09;;;;;;;568.60;517.50;;;;;;;;;;5006283;28;20092;-53
2023/07/23 13:20:34;;;;;;;564.93;259.70;;;;;;;;;;5006308;28;20041;-52
2023/07/23 13:23:00;;;;;;;373.47;310.60;;;;;;;;;;5006013;28;20381;-53
2023/07/23 13:25:25;;;;;;;507.88;458.35;;;;;;;;;;5003825;28;20029;-53
2023/07/23 13:27:50;;;;;;;563.93;303.67;;;;;;;;;;5005459;28;20030;-53
2023/07/23 13:30:16;;;;;;;369.23;334.77;;;;;;;;;;5005927;28;20347;-53
2023/07/23 13:32:41;;;;;;;468.27;362.60;;;;;;;;;;5006488;28;20582;-53
2023/07/23 13:35:06;;;;;;;384.83;230.82;;;;;;;;;;5005863;28;20036;-53
2023/07/23 13:37:32;;;;;;;375.63;339.73;;;;;;;;;;5004245;28;20034;-53
2023/07/23 13:39:57;;;;;;;539.30;488.87;;;;;;;;;;5006335;28;20353;-53
2023/07/23 13:42:22;;;;;;;336.53;247.03;;;;;;;;;;5009798;28;20029;-53
2023/07/23 13:44:47;;;;;;;596.30;152.65;;;;;;;;;;5009006;28;20248;-53
2023/07/23 13:47:13;;;;;;;451.67;403.30;;;;;;;;;;5005768;28;20103;-52
2023/07/23 13:49:38;;;;;;;381.25;305.83;;;;;;;;;;5010207;28;20278;-53
2023/07/23 13:52:04;;;;;;;502.70;350.52;;;;;;;;;;5007784;28;20049;-53
2023/07/23 13:54:29;;;;;;;666.40;379.02;;;;;;;;;;5008224;28;20025;-53
2023/07/23 13:56:54;;;;;;;655.58;388.30;;;;;;;;;;5007316;28;20525;-53
2023/07/23 13:59:19;;;;;;;677.17;380.70;;;;;;;;;;5010060;28;20018;-54